Time;durP1;ratioP1;P1;durP2;ratioP2;P2;SDS_P1;SDS_P2;PMS_P1;PMS_P2;Temp;Humidity;BMP_temperature;BMP_pressure;BME280_temperature;BME280_humidity;BME280_pressure;Samples;Min_cycle;Max_cycle;Signal;HPM_P1;HPM_P2
2022/07/04 00:02:05;;;;;;;;;1.00;0.00;;;;;22.43;54.20;101839.47;5057506;28;62013;-75
2022/07/04 00:04:31;;;;;;;;;1.00;1.00;;;;;22.38;54.28;101846.78;5077437;28;45443;-75
2022/07/04 00:06:56;;;;;;;;;0.00;0.00;;;;;22.35;54.43;101839.63;5079109;28;47143;-75
2022/07/04 00:09:21;;;;;;;;;3.00;1.33;;;;;22.30;55.14;101840.66;5074983;28;45738;-75
2022/07/04 00:11:47;;;;;;;;;3.67;1.67;;;;;22.27;55.35;101840.75;5078283;28;57394;-75
2022/07/04 00:14:12;;;;;;;;;1.00;1.00;;;;;22.23;55.25;101839.91;5072107;28;45486;-75
2022/07/04 00:16:37;;;;;;;;;1.00;1.00;;;;;22.19;55.25;101836.38;5077454;28;65335;-75
2022/07/04 00:19:03;;;;;;;;;1.00;1.00;;;;;22.14;56.27;101840.09;5078245;28;63419;-75
2022/07/04 00:21:28;;;;;;;;;4.00;1.00;;;;;22.13;56.11;101844.59;5077592;28;65998;-75
2022/07/04 00:23:53;;;;;;;;;1.00;1.00;;;;;22.09;56.22;101840.16;5078723;28;45430;-75
2022/07/04 00:26:19;;;;;;;;;2.00;1.00;;;;;22.06;56.75;101839.34;5077611;28;70052;-75
2022/07/04 00:28:44;;;;;;;;;2.00;1.00;;;;;22.05;56.27;101848.31;5077088;28;68581;-75
2022/07/04 00:31:09;;;;;;;;;1.00;1.00;;;;;22.01;56.40;101841.25;5076122;28;64923;-75
2022/07/04 00:33:35;;;;;;;;;2.33;1.00;;;;;21.96;56.63;101835.94;5072238;28;45480;-75
2022/07/04 00:36:00;;;;;;;;;2.00;1.00;;;;;21.94;57.05;101840.44;5077720;28;59317;-75
2022/07/04 00:38:26;;;;;;;;;2.00;2.00;;;;;21.89;56.93;101837.88;5077853;28;51050;-75
2022/07/04 00:40:52;;;;;;;;;2.00;2.00;;;;;21.85;56.97;101852.31;5078247;28;45427;-76
2022/07/04 00:43:24;;;;;;;;;3.00;1.00;;;;;21.83;57.77;101853.22;5076746;28;58974;-75
2022/07/04 00:45:49;;;;;;;;;1.00;1.00;;;;;21.78;57.55;101850.63;5077921;28;47552;-75
2022/07/04 00:48:18;;;;;;;;;0.33;0.00;;;;;21.76;58.33;101851.59;5077674;28;45426;-75
2022/07/04 00:50:47;;;;;;;;;2.00;1.00;;;;;21.69;58.05;101842.75;5070357;28;45502;-75
2022/07/04 00:53:14;;;;;;;;;2.33;1.00;;;;;21.66;58.64;101858.94;5071662;28;45624;-75
2022/07/04 00:55:39;;;;;;;;;1.33;1.00;;;;;21.59;58.47;101852.78;5058520;28;47288;-75
2022/07/04 00:58:06;;;;;;;;;3.33;1.00;;;;;21.55;59.27;101851.06;5077387;28;60509;-76
2022/07/04 01:00:32;;;;;;;;;3.33;1.00;;;;;21.52;59.00;101853.81;5078336;28;45569;-75
2022/07/04 01:02:57;;;;;;;;;0.33;0.33;;;;;21.49;59.20;101850.28;5069090;28;50173;-75
2022/07/04 01:05:22;;;;;;;;;0.00;0.00;;;;;21.47;59.26;101857.50;5071389;28;70182;-75
2022/07/04 01:07:48;;;;;;;;;1.33;1.00;;;;;21.42;59.29;101866.53;5069013;28;45494;-76
2022/07/04 01:10:13;;;;;;;;;1.00;1.00;;;;;21.39;59.89;101866.56;5075500;28;55609;-75
2022/07/04 01:12:39;;;;;;;;;0.00;0.00;;;;;21.34;59.52;101862.19;5075691;28;49175;-75
2022/07/04 01:15:06;;;;;;;;;1.00;1.00;;;;;21.31;59.97;101871.22;5068801;28;46491;-75
2022/07/04 01:17:35;;;;;;;;;1.00;1.00;;;;;21.29;60.04;101867.59;5076887;28;45355;-75
2022/07/04 01:20:01;;;;;;;;;1.67;0.00;;;;;21.26;60.01;101870.38;5077264;28;45399;-75
2022/07/04 01:22:26;;;;;;;;;1.33;0.33;;;;;21.21;60.77;101858.81;5076323;28;45303;-75
2022/07/04 01:24:51;;;;;;;;;2.67;2.00;;;;;21.16;60.42;101861.56;5077724;28;47440;-75
2022/07/04 01:27:18;;;;;;;;;0.33;0.00;;;;;21.13;60.70;101868.78;5077167;28;55660;-75
2022/07/04 01:29:43;;;;;;;;;1.67;0.33;;;;;21.12;61.07;101864.31;5073081;28;45241;-75
2022/07/04 01:32:09;;;;;;;;;2.00;1.00;;;;;21.08;61.23;101862.59;5077275;28;45291;-75
2022/07/04 01:34:35;;;;;;;;;2.00;1.00;;;;;21.06;61.61;101859.06;5077430;28;47556;-75
2022/07/04 01:37:00;;;;;;;;;1.00;1.00;;;;;21.00;61.30;101851.97;5077536;28;45200;-75
2022/07/04 01:39:27;;;;;;;;;1.00;1.00;;;;;21.00;61.90;101851.09;5075754;28;45140;-75
2022/07/04 01:41:52;;;;;;;;;2.33;1.33;;;;;20.97;62.29;101859.19;5058908;28;45557;-75
2022/07/04 01:44:18;;;;;;;;;2.00;1.00;;;;;20.93;62.62;101856.56;5076395;28;47560;-75
2022/07/04 01:46:43;;;;;;;;;1.00;1.00;;;;;20.89;62.73;101854.84;5068991;28;65540;-75
2022/07/04 01:49:08;;;;;;;;;1.00;1.00;;;;;20.87;63.56;101853.94;5077311;28;45469;-74
2022/07/04 01:51:34;;;;;;;;;3.00;1.00;;;;;20.86;64.00;101859.34;5077120;28;45628;-75
2022/07/04 01:54:00;;;;;;;;;2.00;1.00;;;;;20.84;63.80;101862.06;5076219;28;73051;-75
2022/07/04 01:56:28;;;;;;;;;1.00;1.00;;;;;20.81;64.05;101854.06;5076162;28;48566;-75
2022/07/04 01:58:54;;;;;;;;;1.00;1.00;;;;;20.76;64.17;101858.59;5064583;28;45403;-75
2022/07/04 02:01:31;;;;;;;;;2.00;1.00;;;;;20.73;63.86;101855.97;5075882;28;62773;-75
2022/07/04 02:03:58;;;;;;;;;1.00;1.00;;;;;20.70;64.65;101864.06;5069315;28;47572;-75
2022/07/04 02:06:24;;;;;;;;;1.00;1.00;;;;;20.69;64.23;101856.03;5077192;28;45433;-75
2022/07/04 02:13:00;;;;;;;;;1.00;1.00;;;;;20.62;65.08;101855.25;5077578;28;45209;-75
2022/07/04 02:14:19;;;;;;;;;1.67;0.67;;;;;20.57;65.03;101851.75;5071260;28;45537;-75
2022/07/04 02:16:45;;;;;;;;;4.67;1.33;;;;;20.53;65.45;101845.53;5076858;28;45349;-75
2022/07/04 02:19:10;;;;;;;;;2.67;1.33;;;;;20.48;65.21;101842.00;5075461;28;65436;-75
2022/07/04 02:21:36;;;;;;;;;3.00;0.67;;;;;20.46;66.05;101842.94;5076814;28;49074;-75
2022/07/04 02:24:01;;;;;;;;;0.67;0.67;;;;;20.45;65.98;101846.50;5075807;28;64676;-75
2022/07/04 02:26:27;;;;;;;;;2.33;1.00;;;;;20.41;65.94;101849.22;5076765;28;46804;-74
2022/07/04 02:28:52;;;;;;;;;2.00;2.00;;;;;20.36;66.36;101842.16;5075691;28;65188;-75
2022/07/04 02:31:17;;;;;;;;;1.67;1.67;;;;;20.34;67.17;101836.78;5074621;28;45530;-75
2022/07/04 02:33:43;;;;;;;;;2.00;2.00;;;;;20.31;67.72;101838.66;5076122;28;47448;-74
2022/07/04 02:36:08;;;;;;;;;2.33;1.00;;;;;20.30;67.81;101835.09;5075478;28;65244;-75
2022/07/04 02:38:33;;;;;;;;;1.00;1.00;;;;;20.29;67.91;101840.44;5071456;28;61060;-75
2022/07/04 02:40:59;;;;;;;;;1.00;1.00;;;;;20.27;68.30;101845.84;5076888;28;45570;-75
2022/07/04 02:43:24;;;;;;;;;2.00;2.00;;;;;20.28;68.01;101850.28;5075441;28;68427;-75
2022/07/04 02:45:49;;;;;;;;;3.00;1.67;;;;;20.27;68.56;101848.50;5075907;28;57383;-75
2022/07/04 02:48:15;;;;;;;;;1.67;1.67;;;;;20.24;68.80;101847.66;5075562;28;45458;-75
2022/07/04 02:50:40;;;;;;;;;1.67;1.67;;;;;20.22;68.81;101846.81;5070707;28;62950;-75
2022/07/04 02:53:06;;;;;;;;;1.67;1.67;;;;;20.15;68.98;101844.19;5075216;28;64939;-75
2022/07/04 02:55:35;;;;;;;;;1.00;1.00;;;;;20.13;69.04;101848.72;5075779;28;45492;-75
2022/07/04 02:58:00;;;;;;;;;1.00;1.00;;;;;20.10;69.43;101847.84;5075438;28;61409;-75
2022/07/04 03:00:26;;;;;;;;;4.33;2.00;;;;;20.07;70.17;101842.50;5075933;28;60484;-75
2022/07/04 03:02:53;;;;;;;;;2.00;2.00;;;;;20.05;69.91;101847.03;5067055;28;67019;-75
2022/07/04 03:05:19;;;;;;;;;1.67;1.67;;;;;20.07;70.48;101850.56;5072701;28;45356;-75
2022/07/04 03:07:44;;;;;;;;;3.33;1.33;;;;;20.03;70.34;101851.53;5070740;28;45304;-75
2022/07/04 03:10:10;;;;;;;;;1.67;1.67;;;;;20.02;70.91;101863.13;5075906;28;45505;-75
2022/07/04 03:12:35;;;;;;;;;2.67;0.67;;;;;20.01;70.96;101858.69;5074165;28;63820;-75
2022/07/04 03:15:00;;;;;;;;;1.67;1.67;;;;;20.00;71.41;101862.28;5068407;28;69783;-75
2022/07/04 03:17:26;;;;;;;;;4.33;2.00;;;;;19.99;71.34;101869.44;5075397;28;45214;-74
2022/07/04 03:19:51;;;;;;;;;1.33;1.33;;;;;19.93;71.94;101865.94;5075445;28;55733;-75
2022/07/04 03:22:17;;;;;;;;;4.33;2.00;;;;;19.91;71.54;101867.72;5074415;28;70563;-75
2022/07/04 03:24:42;;;;;;;;;2.67;1.67;;;;;19.88;71.87;101884.75;5070568;28;45474;-75
2022/07/04 03:27:07;;;;;;;;;3.00;2.00;;;;;19.86;72.33;101879.38;5075492;28;45430;-75
2022/07/04 03:29:33;;;;;;;;;1.67;1.67;;;;;19.83;72.32;101870.50;5073782;28;45497;-75
2022/07/04 03:31:58;;;;;;;;;4.67;1.67;;;;;19.80;72.87;101874.09;5074777;28;66053;-75
2022/07/04 03:34:23;;;;;;;;;3.00;1.67;;;;;19.77;73.00;101874.13;5057703;28;45380;-75
2022/07/04 03:36:49;;;;;;;;;3.33;2.67;;;;;19.77;73.12;101875.94;5075882;28;47772;-75
2022/07/04 03:39:14;;;;;;;;;0.67;0.67;;;;;19.74;73.54;101874.16;5075035;28;60788;-75
2022/07/04 03:41:39;;;;;;;;;1.67;1.67;;;;;19.75;74.02;101880.41;5072806;28;67902;-75
2022/07/04 03:44:05;;;;;;;;;2.00;2.00;;;;;19.74;73.39;101890.22;5075057;28;66001;-75
2022/07/04 03:46:30;;;;;;;;;3.67;1.67;;;;;19.72;74.12;101878.66;5074896;28;58762;-75
2022/07/04 03:48:55;;;;;;;;;3.33;2.33;;;;;19.70;73.90;101876.88;5074069;28;53879;-75
2022/07/04 03:51:22;;;;;;;;;5.00;2.00;;;;;19.65;74.29;101874.25;5073109;28;49411;-75
2022/07/04 03:53:48;;;;;;;;;3.67;3.00;;;;;19.59;74.73;101869.81;5075359;28;45328;-75
2022/07/04 03:56:14;;;;;;;;;2.00;2.00;;;;;19.59;75.26;101871.63;5075374;28;45397;-75
2022/07/04 03:58:39;;;;;;;;;2.00;2.00;;;;;19.56;75.13;101864.47;5075146;28;45241;-75
2022/07/04 04:01:05;;;;;;;;;4.00;2.00;;;;;19.53;75.73;101859.16;5074624;28;46657;-75
2022/07/04 04:06:14;;;;;;;;;3.00;1.33;;;;;19.47;75.94;101867.25;5072554;28;45358;-75
2022/07/04 04:08:39;;;;;;;;;1.33;1.33;;;;;19.47;76.81;101861.00;5073110;28;45561;-75
2022/07/04 04:11:04;;;;;;;;;1.33;1.33;;;;;19.46;76.59;101870.84;5078339;28;58535;-75
2022/07/04 04:13:30;;;;;;;;;2.33;1.33;;;;;19.44;76.76;101871.72;5078722;28;45274;-75
2022/07/04 04:15:55;;;;;;;;;3.00;3.00;;;;;19.41;77.13;101869.97;5078057;28;60260;-75
2022/07/04 04:18:20;;;;;;;;;3.00;2.00;;;;;19.38;77.58;101873.56;5078321;28;58769;-75
2022/07/04 04:20:46;;;;;;;;;2.00;2.00;;;;;19.36;78.08;101871.81;5077248;28;68942;-75
2022/07/04 04:23:11;;;;;;;;;3.33;2.33;;;;;19.34;77.77;101874.50;5077532;28;69122;-74
2022/07/04 04:25:36;;;;;;;;;3.33;2.00;;;;;19.32;78.47;101873.63;5075834;28;45273;-74
2022/07/04 04:28:02;;;;;;;;;4.67;3.00;;;;;19.33;78.73;101886.13;5076403;28;61145;-74
2022/07/04 04:30:27;;;;;;;;;2.33;2.33;;;;;19.34;78.89;101895.06;5072494;28;46406;-74
2022/07/04 04:32:53;;;;;;;;;2.00;2.00;;;;;19.35;78.83;101897.72;5078414;28;45495;-75
2022/07/04 04:35:19;;;;;;;;;2.33;2.33;;;;;19.37;78.84;101903.03;5073082;28;60426;-74
2022/07/04 04:37:44;;;;;;;;;4.33;2.00;;;;;19.42;79.03;101903.00;5075875;28;45350;-74
2022/07/04 04:40:10;;;;;;;;;1.00;1.00;;;;;19.42;78.70;101895.84;5076397;28;49855;-74
2022/07/04 04:42:37;;;;;;;;;2.00;2.00;;;;;19.41;79.05;101891.41;5078418;28;45331;-74
2022/07/04 04:45:03;;;;;;;;;2.00;2.00;;;;;19.40;78.99;101894.09;5078159;28;45474;-75
2022/07/04 04:47:29;;;;;;;;;2.00;2.00;;;;;19.44;78.97;101898.50;5078013;28;45605;-74
2022/07/04 04:49:54;;;;;;;;;2.33;2.33;;;;;19.44;79.31;101895.84;5073375;28;66127;-74
2022/07/04 04:52:19;;;;;;;;;6.00;4.00;;;;;19.44;78.93;101885.13;5074294;28;68624;-74
2022/07/04 04:54:45;;;;;;;;;5.67;2.67;;;;;19.48;79.58;101900.28;5187690;22;60242;-75
2022/07/04 04:57:10;;;;;;;;;3.67;2.00;;;;;19.49;80.15;101904.72;5070830;28;45569;-75
2022/07/04 04:59:35;;;;;;;;;4.00;3.00;;;;;19.47;79.82;101901.19;5074487;28;46403;-74
2022/07/04 05:02:01;;;;;;;;;1.33;1.33;;;;;19.49;80.02;101905.59;5071175;28;65726;-75
2022/07/04 05:04:26;;;;;;;;;4.00;3.00;;;;;19.50;80.49;101907.41;5070392;28;45551;-74
2022/07/04 05:06:52;;;;;;;;;2.67;2.67;;;;;19.50;80.08;101895.81;5057613;28;45451;-75
2022/07/04 05:09:17;;;;;;;;;5.33;2.00;;;;;19.51;80.56;101898.47;5070058;28;70672;-74
2022/07/04 05:11:43;;;;;;;;;4.00;2.67;;;;;19.54;80.25;101905.56;5073969;28;45458;-76
2022/07/04 05:14:08;;;;;;;;;2.33;2.33;;;;;19.54;80.32;101903.78;5064018;28;45193;-74
2022/07/04 05:16:33;;;;;;;;;2.00;2.00;;;;;19.57;80.34;101902.88;5071132;28;64335;-73
2022/07/04 05:18:59;;;;;;;;;5.00;2.33;;;;;19.56;80.66;101912.72;5075776;28;68012;-72
2022/07/04 05:21:26;;;;;;;;;3.00;3.00;;;;;19.53;80.65;101903.81;5075424;28;45442;-72
2022/07/04 05:23:52;;;;;;;;;2.33;2.33;;;;;19.54;80.48;101901.09;5075332;28;45646;-73
2022/07/04 05:26:17;;;;;;;;;3.00;3.00;;;;;19.57;81.21;101911.81;5065129;28;46917;-73
2022/07/04 05:28:43;;;;;;;;;6.00;3.33;;;;;19.57;80.88;101903.75;5069327;28;46608;-76
2022/07/04 05:31:08;;;;;;;;;4.00;2.67;;;;;19.58;80.95;101901.97;5068971;28;69617;-75
2022/07/04 05:33:33;;;;;;;;;3.67;2.33;;;;;19.57;81.53;101898.41;5069430;28;60132;-74
2022/07/04 05:35:59;;;;;;;;;2.67;2.00;;;;;19.58;81.61;101896.63;5070288;28;59624;-74
2022/07/04 05:38:24;;;;;;;;;2.00;2.00;;;;;19.61;81.96;101902.00;5067584;28;48826;-74
2022/07/04 05:40:49;;;;;;;;;4.67;2.00;;;;;19.64;82.11;101899.25;5066744;28;67310;-72
2022/07/04 05:43:15;;;;;;;;;3.67;1.67;;;;;19.68;82.54;101897.44;5075968;28;45451;-71
2022/07/04 05:45:40;;;;;;;;;4.67;3.33;;;;;19.70;82.56;101898.31;5067411;28;45576;-74
2022/07/04 05:48:06;;;;;;;;;2.33;2.33;;;;;19.71;83.36;101892.03;5075045;28;45840;-73
2022/07/04 05:50:31;;;;;;;;;4.00;1.67;;;;;19.63;82.99;101898.38;5071464;28;62760;-73
2022/07/04 05:52:56;;;;;;;;;3.67;3.00;;;;;19.53;83.77;101893.09;5071304;28;45513;-73
2022/07/04 05:55:22;;;;;;;;;3.00;3.00;;;;;19.40;84.53;101891.44;5072096;28;45481;-73
2022/07/04 05:57:47;;;;;;;;;3.00;3.00;;;;;19.28;85.05;101892.41;5072149;28;61120;-73
2022/07/04 06:00:13;;;;;;;;;2.00;2.00;;;;;19.20;85.90;101895.16;5074513;28;45367;-73
2022/07/04 06:02:41;;;;;;;;;2.33;2.33;;;;;19.12;86.63;101891.63;5073175;28;45297;-73
2022/07/04 06:05:07;;;;;;;;;4.00;4.00;;;;;19.06;86.96;101897.91;5074883;28;45467;-74
2022/07/04 06:07:32;;;;;;;;;4.00;2.33;;;;;19.02;86.35;101892.63;5073180;28;46915;-74
2022/07/04 06:09:58;;;;;;;;;2.00;1.33;;;;;19.03;86.96;101910.44;5070685;28;45513;-73
2022/07/04 06:12:23;;;;;;;;;3.67;3.67;;;;;19.04;nan;101904.19;5071050;28;45602;-74
2022/07/04 06:14:48;;;;;;;;;3.00;3.00;;;;;19.07;88.10;101907.75;5073917;28;57412;-74
2022/07/04 06:17:14;;;;;;;;;2.67;2.33;;;;;19.09;87.95;101910.41;5040680;28;48797;-74
2022/07/04 06:19:39;;;;;;;;;3.33;3.00;;;;;19.10;87.55;101902.34;5071392;28;45505;-73
2022/07/04 06:22:04;;;;;;;;;5.00;3.67;;;;;19.09;88.75;101905.06;5075160;28;58841;-74
2022/07/04 06:24:30;;;;;;;;;4.33;3.00;;;;;19.08;88.57;101905.97;5075032;28;48693;-75
2022/07/04 06:26:55;;;;;;;;;7.33;4.33;;;;;19.09;90.81;101919.31;5075130;28;63000;-74
2022/07/04 06:29:20;;;;;;;;;4.00;3.00;;;;;19.05;92.25;101906.84;5070821;28;63158;-74
2022/07/04 06:31:46;;;;;;;;;3.00;3.00;;;;;19.01;90.13;101912.22;5063885;28;64769;-74
2022/07/04 06:36:55;;;;;;;;;5.00;3.00;;;;;19.02;90.89;101906.00;5069272;28;45774;-73
2022/07/04 06:39:20;;;;;;;;;3.00;3.00;;;;;19.04;90.94;101913.09;5068643;28;63973;-75
2022/07/04 06:41:46;;;;;;;;;3.00;3.00;;;;;19.07;90.90;101898.84;5070199;28;45545;-75
2022/07/04 06:44:11;;;;;;;;;4.00;3.33;;;;;19.11;91.42;101909.47;5071140;27;55727;-73
2022/07/04 06:46:36;;;;;;;;;7.00;4.33;;;;;19.16;91.11;101905.88;5073296;28;46440;-75
2022/07/04 06:49:02;;;;;;;;;5.67;4.00;;;;;19.21;90.72;101907.63;5064096;28;45526;-75
2022/07/04 06:51:27;;;;;;;;;6.00;3.33;;;;;19.26;90.75;101908.47;5059673;28;62976;-75
2022/07/04 06:53:53;;;;;;;;;4.67;2.00;;;;;19.29;91.50;101903.13;5074456;28;45387;-75
2022/07/04 06:56:18;;;;;;;;;7.67;4.33;;;;;19.34;91.48;101906.66;5074388;28;65653;-74
2022/07/04 06:58:44;;;;;;;;;4.67;4.67;;;;;19.40;91.50;101907.50;5065996;28;45320;-75
2022/07/04 07:01:09;;;;;;;;;2.33;2.33;;;;;19.44;91.31;101918.19;5055575;28;45466;-74
2022/07/04 07:03:35;;;;;;;;;2.67;2.33;;;;;19.49;91.43;101912.75;5063373;28;50792;-75
2022/07/04 07:06:02;;;;;;;;;3.33;2.33;;;;;19.51;90.78;101922.56;5072231;28;47453;-82
2022/07/04 07:08:28;;;;;;;;;4.00;2.67;;;;;19.53;90.61;101926.13;5072890;28;45503;-74
2022/07/04 07:10:54;;;;;;;;;2.00;2.00;;;;;19.56;90.30;101922.53;5070058;28;45473;-75
2022/07/04 07:13:19;;;;;;;;;9.00;3.67;;;;;19.59;90.81;101930.56;5064015;28;45565;-75
2022/07/04 07:15:44;;;;;;;;;2.67;2.67;;;;;19.62;90.48;101925.19;5064178;28;55412;-75
2022/07/04 07:18:10;;;;;;;;;4.67;2.67;;;;;19.62;90.76;101927.88;5066623;28;52252;-75
2022/07/04 07:20:35;;;;;;;;;2.00;2.00;;;;;19.65;89.95;101926.94;5075922;28;45830;-75
2022/07/04 07:23:04;;;;;;;;;1.67;1.67;;;;;19.67;89.69;101938.56;5073959;28;45498;-75
2022/07/04 07:25:30;;;;;;;;;2.67;2.00;;;;;19.70;88.64;101935.84;5072384;28;46467;-75
2022/07/04 07:27:57;;;;;;;;;2.00;2.00;;;;;19.71;88.51;101922.44;5068295;28;45855;-79
2022/07/04 07:30:22;;;;;;;;;1.67;1.67;;;;;19.77;88.84;101933.09;5072193;28;45438;-74
2022/07/04 07:32:47;;;;;;;;;5.67;1.00;;;;;19.78;87.78;101929.50;5072487;28;45481;-74
2022/07/04 07:35:13;;;;;;;;;2.00;2.00;;;;;19.79;87.58;101927.72;5073939;28;51798;-75
2022/07/04 07:37:38;;;;;;;;;5.33;2.00;;;;;19.84;87.38;101928.56;5074468;28;45516;-74
2022/07/04 07:40:04;;;;;;;;;2.00;2.00;;;;;19.86;87.51;101916.91;5070404;28;57267;-74
2022/07/04 07:42:29;;;;;;;;;4.33;1.67;;;;;19.94;86.74;101919.53;5062298;28;45350;-74
2022/07/04 07:44:56;;;;;;;;;2.33;2.00;;;;;19.98;86.73;101923.06;5062394;28;47229;-74
2022/07/04 07:47:21;;;;;;;;;2.33;1.33;;;;;20.02;86.40;101916.75;5069745;28;46284;-74
2022/07/04 07:49:47;;;;;;;;;1.33;1.33;;;;;20.04;86.46;101917.63;5071180;28;58325;-75
2022/07/04 07:52:14;;;;;;;;;3.00;2.00;;;;;20.09;85.71;101915.81;5070198;28;45597;-74
2022/07/04 07:54:40;;;;;;;;;2.33;2.00;;;;;20.12;85.41;101923.78;5073697;28;46119;-78
2022/07/04 07:57:05;;;;;;;;;1.67;1.67;;;;;20.15;85.21;101923.78;5058522;28;59907;-78
2022/07/04 07:59:30;;;;;;;;;2.67;2.00;;;;;20.17;84.02;101918.38;5073779;28;45443;-76
2022/07/04 08:01:56;;;;;;;;;1.67;1.67;;;;;20.18;84.04;101915.66;5074465;28;59778;-76
2022/07/04 08:04:37;;;;;;;;;4.33;2.00;;;;;20.24;83.59;101917.38;5074213;28;70457;-76
2022/07/04 08:07:08;;;;;;;;;0.67;0.67;;;;;20.30;83.21;101914.66;5075749;28;45893;-77
2022/07/04 08:09:34;;;;;;;;;1.00;1.00;;;;;20.33;82.31;101907.44;5067805;28;45634;-77
2022/07/04 08:12:01;;;;;;;;;3.00;2.00;;;;;20.41;82.48;101900.22;5059550;28;45660;-76
2022/07/04 08:14:27;;;;;;;;;2.00;2.00;;;;;20.47;81.72;101903.75;5073962;28;46757;-76
2022/07/04 08:16:52;;;;;;;;;1.00;1.00;;;;;20.52;80.95;101908.16;5070386;28;45458;-77
2022/07/04 08:19:17;;;;;;;;;3.00;1.00;;;;;20.57;80.12;101906.28;5075954;28;45509;-74
2022/07/04 08:21:43;;;;;;;;;1.00;1.00;;;;;20.61;78.82;101901.75;5069615;28;45613;-75
2022/07/04 08:24:08;;;;;;;;;1.00;1.00;;;;;20.62;77.63;101903.56;5069471;28;71668;-75
2022/07/04 08:26:33;;;;;;;;;1.67;1.00;;;;;20.66;76.56;101907.94;5073894;28;45470;-76
2022/07/04 08:28:59;;;;;;;;;2.33;1.00;;;;;20.73;75.78;101911.47;5070376;28;50184;-78
2022/07/04 08:31:25;;;;;;;;;3.00;2.00;;;;;20.74;76.08;101903.38;5070883;28;45510;-75
2022/07/04 08:33:51;;;;;;;;;2.33;2.00;;;;;20.77;77.54;101902.44;5069945;28;46556;-77
2022/07/04 08:36:16;;;;;;;;;2.00;2.00;;;;;20.79;77.05;101898.84;5072694;28;45595;-76
2022/07/04 08:38:41;;;;;;;;;1.00;1.00;;;;;20.85;77.10;101896.06;5071282;28;45451;-78
2022/07/04 08:41:07;;;;;;;;;3.00;3.00;;;;;20.91;77.06;101892.38;5073631;28;60003;-76
2022/07/04 08:43:33;;;;;;;;;1.00;1.00;;;;;20.93;77.31;101894.16;5072596;28;49301;-75
2022/07/04 08:45:59;;;;;;;;;2.00;2.00;;;;;20.98;76.04;101893.19;5068484;28;45598;-74
2022/07/04 08:48:26;;;;;;;;;4.67;3.00;;;;;21.00;76.14;101881.53;5064257;28;45646;-73
2022/07/04 08:50:57;;;;;;;;;2.33;2.33;;;;;21.08;75.54;101886.75;5068175;28;45369;-73
2022/07/04 08:53:28;;;;;;;;;2.00;2.00;;;;;21.09;74.42;101883.16;5057137;28;46572;-73
2022/07/04 08:58:38;;;;;;;;;1.00;1.00;;;;;21.12;74.11;101875.06;5060858;28;45525;-74
2022/07/04 09:01:07;;;;;;;;;4.33;1.67;;;;;21.16;73.83;101882.16;5070535;28;45462;-73
2022/07/04 09:03:32;;;;;;;;;0.00;0.00;;;;;21.21;72.10;101887.47;5071584;28;46649;-72
2022/07/04 09:05:59;;;;;;;;;1.67;1.67;;;;;21.21;71.78;101882.97;5074613;28;45451;-75
2022/07/04 09:08:25;;;;;;;;;1.00;1.00;;;;;21.26;69.86;101886.47;5076148;28;45358;-73
2022/07/04 09:10:52;;;;;;;;;0.00;0.00;;;;;21.27;70.09;101882.00;5068348;28;45496;-74
2022/07/04 09:13:18;;;;;;;;;1.00;0.00;;;;;21.31;69.83;101881.06;5072872;28;46509;-73
2022/07/04 09:15:47;;;;;;;;;5.00;1.00;;;;;21.36;70.53;101881.84;5070000;28;45438;-74
2022/07/04 09:18:38;;;;;;;;;2.33;1.00;;;;;21.44;70.05;101874.56;5071048;28;45549;-74
2022/07/04 09:21:06;;;;;;;;;1.67;1.00;;;;;21.48;70.45;101870.03;5066876;28;45881;-74
2022/07/04 09:23:39;;;;;;;;;1.00;1.00;;;;;21.55;70.00;101871.69;5071428;28;46847;-73
2022/07/04 09:26:10;;;;;;;;;1.33;1.00;;;;;21.61;69.74;101860.81;5051937;28;45435;-73
2022/07/04 09:28:36;;;;;;;;;1.00;1.00;;;;;21.63;70.32;101859.88;5070715;28;45652;-73
2022/07/04 09:31:02;;;;;;;;;3.00;1.00;;;;;21.68;69.14;101858.00;5074934;28;45433;-74
2022/07/04 09:33:44;;;;;;;;;3.67;1.00;;;;;21.76;67.78;101865.91;5055091;28;46376;-76
2022/07/04 09:36:18;;;;;;;;;0.67;0.67;;;;;21.77;66.20;101858.72;5068651;28;45447;-74
2022/07/04 09:38:44;;;;;;;;;1.00;1.00;;;;;21.84;67.06;101866.66;5072894;28;45560;-73
2022/07/04 09:44:02;;;;;;;;;1.00;1.00;;;;;21.89;65.42;101862.09;5066386;28;45330;-73
2022/07/04 09:46:28;;;;;;;;;1.33;1.00;;;;;21.93;65.17;101860.19;5073320;28;45548;-74
2022/07/04 09:48:53;;;;;;;;;1.00;1.00;;;;;21.97;64.47;101857.44;5069593;28;46225;-73
2022/07/04 09:51:40;;;;;;;;;1.67;1.67;;;;;22.04;65.34;101857.28;5072355;28;45451;-73
2022/07/04 09:54:18;;;;;;;;;2.00;1.33;;;;;22.10;65.21;101854.47;5071341;28;46516;-73
2022/07/04 09:56:46;;;;;;;;;1.00;1.00;;;;;22.16;64.50;101859.78;5074621;28;45357;-73
2022/07/04 09:59:11;;;;;;;;;1.00;1.00;;;;;22.23;65.03;101856.03;5073438;28;45378;-72
2022/07/04 10:01:39;;;;;;;;;1.00;1.00;;;;;22.29;64.22;101858.59;5075885;28;45509;-73
2022/07/04 10:04:04;;;;;;;;;1.00;1.00;;;;;22.34;63.63;101854.00;5070791;28;46570;-74
2022/07/04 10:06:32;;;;;;;;;0.67;0.67;;;;;22.38;63.56;101860.22;5070847;28;45598;-73
2022/07/04 10:09:06;;;;;;;;;2.00;2.00;;;;;22.42;62.62;101868.16;5072270;28;45538;-75
2022/07/04 10:11:33;;;;;;;;;2.00;1.67;;;;;22.44;61.88;101863.66;5072765;28;45559;-73
2022/07/04 10:13:58;;;;;;;;;1.00;1.00;;;;;22.46;61.28;101861.81;5073921;28;58086;-77
2022/07/04 10:16:23;;;;;;;;;1.00;1.00;;;;;22.49;61.89;101855.50;5054966;28;65091;-79
2022/07/04 10:18:49;;;;;;;;;4.00;1.00;;;;;22.54;62.63;101850.88;5054152;28;59797;-80
2022/07/04 10:21:14;;;;;;;;;1.67;1.00;;;;;22.61;62.73;101848.94;5056930;28;61891;-76
2022/07/04 10:23:40;;;;;;;;;2.67;2.00;;;;;22.64;81.54;101844.38;5073981;28;65852;-76
2022/07/04 10:26:06;;;;;;;;;2.33;2.00;;;;;22.40;77.26;101842.22;5055893;28;45591;-79
2022/07/04 10:28:32;;;;;;;;;2.00;2.00;;;;;22.19;81.48;101843.56;5057053;28;45419;-75
2022/07/04 10:30:59;;;;;;;;;2.00;1.00;;;;;22.08;97.37;101845.56;5048373;28;45603;-73
2022/07/04 10:33:27;;;;;;;;;1.00;1.00;;;;;22.04;100.00;101843.84;5057317;28;46870;-73
2022/07/04 10:35:56;;;;;;;;;1.00;1.00;;;;;22.06;100.00;101840.22;5055789;28;45428;-73
2022/07/04 10:38:22;;;;;;;;;1.33;1.00;;;;;22.14;100.00;101840.97;5069581;28;45588;-73
2022/07/04 10:40:59;;;;;;;;;5.00;2.00;;;;;22.23;100.00;101853.34;5050235;28;45446;-75
2022/07/04 10:43:29;;;;;;;;;1.67;1.00;;;;;22.32;100.00;101852.25;5074071;28;47631;-78
2022/07/04 10:45:55;;;;;;;;;1.00;1.00;;;;;22.37;100.00;101839.59;5069921;28;45451;-74
2022/07/04 10:48:24;;;;;;;;;2.67;2.00;;;;;22.45;100.00;101840.31;5073188;28;45350;-76
2022/07/04 10:50:58;;;;;;;;;1.00;1.00;;;;;22.54;100.00;101842.81;5070669;28;46788;-75
2022/07/04 10:53:24;;;;;;;;;2.67;1.00;;;;;22.64;100.00;101835.41;5070282;28;45838;-75
2022/07/04 10:55:49;;;;;;;;;1.00;1.00;;;;;22.71;100.00;101832.53;5052405;28;71150;-76
2022/07/04 10:58:38;;;;;;;;;0.33;0.33;;;;;22.83;100.00;101839.44;5066766;28;45820;-75
2022/07/04 11:01:10;;;;;;;;;1.33;1.33;;;;;22.93;100.00;101827.56;5071103;28;45473;-75
2022/07/04 11:03:46;;;;;;;;;2.67;1.00;;;;;23.03;100.00;101835.41;5066741;28;46421;-75
2022/07/04 11:06:33;;;;;;;;;1.00;1.00;;;;;23.14;99.27;101836.91;5070096;28;45509;-75
2022/07/04 11:09:16;;;;;;;;;2.67;1.00;;;;;23.21;92.92;101834.94;5073293;28;45467;-75
2022/07/04 11:12:03;;;;;;;;;2.00;2.00;;;;;23.30;91.82;101820.34;5071447;28;45611;-73
2022/07/04 11:14:45;;;;;;;;;1.00;1.00;;;;;23.37;85.06;101821.94;5069558;28;45726;-76
2022/07/04 11:17:32;;;;;;;;;2.00;2.00;;;;;23.46;95.19;101822.59;5071673;28;45509;-74
2022/07/04 11:20:01;;;;;;;;;2.00;2.00;;;;;23.57;96.32;101821.44;5071362;28;45537;-78
2022/07/04 11:22:26;;;;;;;;;1.67;1.00;;;;;23.66;89.43;101823.91;5073386;28;45533;-73
2022/07/04 11:24:52;;;;;;;;;1.33;1.33;;;;;23.76;89.24;101828.13;5072300;28;46307;-73
2022/07/04 11:27:21;;;;;;;;;1.00;1.00;;;;;23.83;92.06;101824.31;5075653;28;45820;-73
2022/07/04 11:29:53;;;;;;;;;3.00;2.00;;;;;23.90;88.23;101828.59;5077468;28;45497;-74
2022/07/04 11:32:20;;;;;;;;;1.00;1.00;;;;;23.92;78.65;101821.38;5055907;28;46750;-77
2022/07/04 11:34:46;;;;;;;;;3.00;2.00;;;;;24.00;86.50;101816.63;5072545;28;45550;-77
2022/07/04 11:37:12;;;;;;;;;2.00;2.00;;;;;24.05;81.06;101825.47;5075446;28;45872;-77